createdAt,value
2022-11-07T00:01:21.641Z,10.00
2022-11-07T00:03:48.238Z,10.10
2022-11-07T00:06:14.951Z,10.10
2022-11-07T00:08:41.526Z,10.00
2022-11-07T00:11:08.206Z,10.10
2022-11-07T00:13:34.763Z,10.20
2022-11-07T00:16:06.465Z,10.30
2022-11-07T00:18:33.965Z,10.30
2022-11-07T00:21:09.251Z,10.30
2022-11-07T00:23:36.725Z,10.30
2022-11-07T00:26:09.270Z,10.30
2022-11-07T00:28:36.888Z,10.30
2022-11-07T00:31:04.698Z,10.30
2022-11-07T00:33:31.538Z,10.30
2022-11-07T00:35:58.302Z,10.40
2022-11-07T00:38:24.975Z,10.40
2022-11-07T00:41:01.737Z,10.40
2022-11-07T00:43:29.169Z,10.40
2022-11-07T00:45:55.787Z,10.40
2022-11-07T00:48:22.615Z,10.40
2022-11-07T00:50:49.287Z,10.40
2022-11-07T00:53:16.546Z,10.50
2022-11-07T00:55:43.334Z,10.40
2022-11-07T00:58:13.791Z,10.40
2022-11-07T01:00:41.248Z,10.40
2022-11-07T01:03:26.637Z,10.50
2022-11-07T01:06:01.685Z,10.50
2022-11-07T01:08:28.865Z,10.60
2022-11-07T01:10:56.493Z,10.60
2022-11-07T01:13:23.684Z,10.60
2022-11-07T01:15:50.587Z,10.50
2022-11-07T01:18:17.202Z,10.50
2022-11-07T01:20:43.808Z,10.60
2022-11-07T01:23:10.402Z,10.70
2022-11-07T01:25:37.996Z,10.70
2022-11-07T01:28:06.187Z,10.60
2022-11-07T01:30:33.067Z,10.60
2022-11-07T01:32:59.799Z,10.70
2022-11-07T01:35:26.399Z,10.70
2022-11-07T01:37:53.067Z,10.70
2022-11-07T01:40:19.747Z,10.70
2022-11-07T01:42:46.308Z,10.70
2022-11-07T01:45:31.233Z,10.80
2022-11-07T01:48:01.799Z,10.80
2022-11-07T01:50:29.083Z,10.80
2022-11-07T01:52:56.647Z,10.80
2022-11-07T01:55:29.018Z,10.80
2022-11-07T01:58:09.012Z,10.80
2022-11-07T02:00:36.882Z,10.80
2022-11-07T02:03:09.325Z,10.80
2022-11-07T02:05:44.198Z,10.80
2022-11-07T02:08:12.431Z,10.80
2022-11-07T02:10:40.775Z,10.80
2022-11-07T02:13:07.680Z,10.80
2022-11-07T02:15:36.468Z,10.80
2022-11-07T02:18:03.461Z,10.90
2022-11-07T02:20:30.108Z,10.90
2022-11-07T02:23:00.558Z,10.90
2022-11-07T02:25:27.259Z,11.00
2022-11-07T02:28:01.906Z,10.90
2022-11-07T02:30:31.140Z,11.00
2022-11-07T02:32:57.654Z,11.00
2022-11-07T02:35:44.799Z,10.90
2022-11-07T02:38:17.116Z,11.00
2022-11-07T02:40:47.115Z,11.00
2022-11-07T02:43:17.385Z,10.90
2022-11-07T02:45:48.871Z,11.00
2022-11-07T02:48:15.927Z,10.90
2022-11-07T02:50:42.900Z,11.00
2022-11-07T02:53:09.662Z,11.10
2022-11-07T02:55:36.242Z,11.10
2022-11-07T02:58:03.938Z,11.00
2022-11-07T03:00:30.495Z,11.00
2022-11-07T03:02:57.196Z,11.20
2022-11-07T03:05:23.799Z,11.10
2022-11-07T03:07:50.357Z,11.20
2022-11-07T03:13:08.013Z,11.30
2022-11-07T03:15:34.569Z,11.30
2022-11-07T03:18:01.112Z,11.20
2022-11-07T03:20:27.815Z,11.20
2022-11-07T03:22:54.380Z,11.10
2022-11-07T03:25:20.931Z,11.20
2022-11-07T03:27:48.845Z,11.20
2022-11-07T03:30:16.431Z,11.30
2022-11-07T03:32:43.108Z,11.30
2022-11-07T03:35:10.294Z,11.30
2022-11-07T03:37:36.896Z,11.30
2022-11-07T03:40:03.955Z,11.30
2022-11-07T03:42:30.582Z,11.10
2022-11-07T03:44:57.120Z,11.20
2022-11-07T03:47:23.740Z,11.30
2022-11-07T03:49:54.276Z,11.40
2022-11-07T03:52:20.790Z,11.40
2022-11-07T03:54:47.314Z,11.30
2022-11-07T03:57:13.894Z,11.40
2022-11-07T03:59:40.426Z,11.40
2022-11-07T04:02:07.063Z,11.40
2022-11-07T04:04:33.706Z,11.40
2022-11-07T04:07:00.212Z,11.40
2022-11-07T04:09:26.711Z,11.40
2022-11-07T04:12:11.747Z,11.50
2022-11-07T04:14:57.153Z,11.50
2022-11-07T04:17:24.355Z,11.40
2022-11-07T04:19:55.622Z,11.30
2022-11-07T04:22:25.990Z,11.30
2022-11-07T04:24:52.858Z,11.30
2022-11-07T04:27:38.752Z,11.30
2022-11-07T04:30:20.279Z,11.40
2022-11-07T04:32:48.551Z,11.50
2022-11-07T04:35:16.043Z,11.50
2022-11-07T04:37:43.102Z,11.50
2022-11-07T04:40:11.134Z,11.50
2022-11-07T04:42:37.931Z,11.60
2022-11-07T04:45:05.198Z,11.60
2022-11-07T04:47:34.193Z,11.60
2022-11-07T04:50:02.056Z,11.50
2022-11-07T04:52:28.591Z,11.60
2022-11-07T04:54:55.322Z,11.60
2022-11-07T04:57:21.905Z,11.60
2022-11-07T04:59:48.437Z,11.60
2022-11-07T05:02:15.246Z,11.70
2022-11-07T05:04:41.911Z,11.70
2022-11-07T05:07:09.300Z,11.60
2022-11-07T05:09:36.440Z,11.60
2022-11-07T05:12:03.129Z,11.60
2022-11-07T05:14:31.195Z,11.50
2022-11-07T05:16:58.317Z,11.60
2022-11-07T05:19:24.884Z,11.50
2022-11-07T05:22:11.367Z,11.60
2022-11-07T05:24:39.855Z,11.50
2022-11-07T05:27:06.900Z,11.50
2022-11-07T05:29:33.887Z,11.60
2022-11-07T05:32:00.515Z,11.60
2022-11-07T05:34:27.167Z,11.60
2022-11-07T05:36:53.756Z,11.60
2022-11-07T05:39:20.494Z,11.60
2022-11-07T05:41:47.044Z,11.60
2022-11-07T05:44:13.817Z,11.60
2022-11-07T05:46:41.531Z,11.60
2022-11-07T05:49:08.163Z,11.50
2022-11-07T05:51:34.755Z,11.40
2022-11-07T05:54:01.301Z,11.40
2022-11-07T05:56:27.982Z,11.40
2022-11-07T05:58:54.505Z,11.30
2022-11-07T06:01:21.145Z,11.30
2022-11-07T06:03:47.745Z,11.30
2022-11-07T06:06:14.293Z,11.30
2022-11-07T06:08:40.858Z,11.30
2022-11-07T06:11:07.548Z,11.20
2022-11-07T06:13:34.118Z,11.20
2022-11-07T06:16:00.652Z,11.30
2022-11-07T06:18:27.213Z,11.30
2022-11-07T06:20:53.728Z,11.30
2022-11-07T06:23:20.618Z,11.30
2022-11-07T06:25:47.286Z,11.30
2022-11-07T06:28:14.716Z,11.30
2022-11-07T06:30:41.677Z,11.30
2022-11-07T06:33:11.733Z,11.40
2022-11-07T06:35:38.337Z,11.30
2022-11-07T06:38:06.831Z,11.40
2022-11-07T06:40:33.612Z,11.40
2022-11-07T06:43:13.010Z,11.40
2022-11-07T06:45:40.839Z,11.40
2022-11-07T06:48:08.367Z,11.40
2022-11-07T06:50:35.186Z,11.40
2022-11-07T06:53:07.498Z,11.40
2022-11-07T06:55:35.183Z,11.40
2022-11-07T06:58:02.797Z,11.30
2022-11-07T07:00:31.279Z,11.40
2022-11-07T07:02:59.254Z,11.30
2022-11-07T07:05:26.363Z,11.30
2022-11-07T07:07:55.174Z,11.30
2022-11-07T07:10:21.863Z,11.30
2022-11-07T07:12:48.431Z,11.30
2022-11-07T07:15:14.956Z,11.30
2022-11-07T07:17:41.514Z,11.30
2022-11-07T07:20:09.047Z,11.30
2022-11-07T07:22:35.580Z,11.40
2022-11-07T07:25:02.107Z,11.40
2022-11-07T07:27:28.638Z,11.40
2022-11-07T07:29:55.173Z,11.50
2022-11-07T07:32:24.969Z,11.40
2022-11-07T07:34:52.167Z,11.40
2022-11-07T07:37:18.842Z,11.40
2022-11-07T07:42:41.254Z,11.50
2022-11-07T07:45:08.529Z,11.50
2022-11-07T07:47:35.054Z,11.60
2022-11-07T07:50:01.570Z,11.60
2022-11-07T07:52:28.139Z,11.60
2022-11-07T07:54:55.857Z,11.70
2022-11-07T07:57:22.503Z,11.70
2022-11-07T07:59:49.135Z,11.80
2022-11-07T08:02:15.713Z,11.90
2022-11-07T08:04:42.608Z,11.90
2022-11-07T08:07:09.492Z,11.90
2022-11-07T08:09:36.649Z,11.90
2022-11-07T08:12:04.594Z,11.90
2022-11-07T08:17:21.764Z,12.00
2022-11-07T08:19:48.300Z,12.00
2022-11-07T08:25:07.826Z,12.00
2022-11-07T08:27:34.579Z,12.00
2022-11-07T08:30:01.240Z,12.10
2022-11-07T08:32:28.416Z,12.10
2022-11-07T08:34:57.630Z,12.10
2022-11-07T08:37:24.365Z,12.20
2022-11-07T08:39:51.316Z,12.20
2022-11-07T08:42:18.063Z,12.20
2022-11-07T08:44:44.661Z,12.30
2022-11-07T08:47:11.277Z,12.30
2022-11-07T08:49:37.789Z,12.30
2022-11-07T08:52:04.527Z,12.30
2022-11-07T08:54:32.160Z,12.30
2022-11-07T08:56:59.010Z,12.30
2022-11-07T08:59:25.538Z,12.30
2022-11-07T09:02:26.683Z,12.50
2022-11-07T09:04:42.433Z,12.40
2022-11-07T09:07:09.094Z,12.30
2022-11-07T09:09:35.751Z,12.40
2022-11-07T09:12:05.064Z,12.50
2022-11-07T09:14:31.603Z,12.40
2022-11-07T09:16:58.339Z,12.50
2022-11-07T09:19:24.887Z,12.70
2022-11-07T09:21:51.423Z,12.70
2022-11-07T09:24:19.963Z,12.70
2022-11-07T09:26:46.506Z,12.70
2022-11-07T09:29:13.196Z,12.70
2022-11-07T09:31:39.713Z,12.80
2022-11-07T09:34:07.494Z,12.80
2022-11-07T09:36:34.251Z,13.00
2022-11-07T09:39:01.114Z,13.00
2022-11-07T09:41:33.575Z,12.90
2022-11-07T09:44:12.993Z,13.00
2022-11-07T09:47:01.403Z,13.10
2022-11-07T09:49:38.873Z,13.10
2022-11-07T09:52:37.523Z,13.10
2022-11-07T09:55:35.003Z,13.10
2022-11-07T09:58:20.087Z,13.10
2022-11-07T10:00:46.790Z,13.10
2022-11-07T10:03:14.102Z,13.10
2022-11-07T10:06:05.302Z,13.20
2022-11-07T10:08:34.648Z,13.30
2022-11-07T10:11:09.128Z,13.30
2022-11-07T10:13:41.183Z,13.30
2022-11-07T10:16:37.017Z,13.20
2022-11-07T10:19:29.939Z,13.30
2022-11-07T10:22:27.420Z,13.20
2022-11-07T10:25:16.451Z,13.30
2022-11-07T10:27:46.977Z,13.20
2022-11-07T10:30:17.539Z,13.30
2022-11-07T10:32:59.479Z,13.20
2022-11-07T10:35:35.114Z,13.20
2022-11-07T10:38:14.214Z,13.30
2022-11-07T10:40:42.280Z,13.40
2022-11-07T10:43:19.746Z,13.30
2022-11-07T10:45:46.611Z,13.40
2022-11-07T10:48:14.412Z,13.40
2022-11-07T10:50:50.283Z,13.40
2022-11-07T10:53:23.252Z,13.50
2022-11-07T10:55:51.711Z,13.50
2022-11-07T10:58:22.911Z,13.50
2022-11-07T11:01:05.112Z,13.40
2022-11-07T11:03:44.375Z,13.40
2022-11-07T11:06:22.817Z,13.40
2022-11-07T11:08:51.799Z,13.40
2022-11-07T11:11:21.116Z,13.40
2022-11-07T11:13:48.631Z,13.50
2022-11-07T11:16:24.369Z,13.40
2022-11-07T11:18:55.647Z,13.40
2022-11-07T11:21:23.036Z,13.40
2022-11-07T11:23:49.960Z,13.40
2022-11-07T11:26:40.290Z,13.40
2022-11-07T11:29:54.519Z,13.40
2022-11-07T11:32:37.104Z,13.40
2022-11-07T11:35:06.939Z,13.40
2022-11-07T11:37:38.849Z,13.50
2022-11-07T11:40:15.272Z,13.50
2022-11-07T11:42:54.070Z,13.60
2022-11-07T11:45:26.447Z,13.70
2022-11-07T11:48:02.220Z,13.70
2022-11-07T11:50:43.077Z,13.70
2022-11-07T11:53:18.156Z,13.70
2022-11-07T11:55:57.449Z,13.70
2022-11-07T11:58:42.379Z,13.60
2022-11-07T12:01:31.952Z,13.70
2022-11-07T12:04:43.375Z,13.70
2022-11-07T12:07:38.300Z,13.70
2022-11-07T12:10:17.887Z,13.60
2022-11-07T12:12:59.655Z,13.50
2022-11-07T12:15:41.995Z,13.50
2022-11-07T12:18:47.244Z,13.40
2022-11-07T12:21:28.799Z,13.50
2022-11-07T12:24:20.660Z,13.40
2022-11-07T12:27:09.254Z,13.50
2022-11-07T12:29:59.404Z,13.50
2022-11-07T12:32:34.905Z,13.50
2022-11-07T12:35:25.781Z,13.50
2022-11-07T12:38:11.904Z,13.50
2022-11-07T12:41:08.704Z,13.50
2022-11-07T12:43:51.106Z,13.50
2022-11-07T12:46:54.051Z,13.50
2022-11-07T12:49:45.665Z,13.50
2022-11-07T12:52:18.548Z,13.60
2022-11-07T12:54:59.398Z,13.50
2022-11-07T12:57:33.594Z,13.60
2022-11-07T13:00:05.626Z,13.50
2022-11-07T13:02:46.236Z,13.60
2022-11-07T13:05:37.684Z,13.70
2022-11-07T13:08:08.650Z,13.80
2022-11-07T13:11:07.367Z,13.80
2022-11-07T13:13:54.038Z,13.80
2022-11-07T13:16:29.860Z,13.80
2022-11-07T13:19:07.586Z,13.80
2022-11-07T13:21:43.841Z,13.90
2022-11-07T13:24:21.738Z,13.90
2022-11-07T13:26:48.638Z,13.90
2022-11-07T13:29:36.325Z,13.80
2022-11-07T13:32:14.607Z,13.80
2022-11-07T13:35:02.833Z,13.80
2022-11-07T13:37:36.175Z,13.70
2022-11-07T13:40:37.934Z,13.70
2022-11-07T13:43:22.045Z,13.70
2022-11-07T13:46:01.119Z,13.70
2022-11-07T13:48:46.785Z,13.70
2022-11-07T13:51:32.524Z,13.70
2022-11-07T13:54:14.450Z,13.50
2022-11-07T13:57:05.159Z,13.50
2022-11-07T13:59:43.875Z,13.40
2022-11-07T14:02:25.581Z,13.40
2022-11-07T14:05:15.182Z,13.50
2022-11-07T14:07:54.824Z,13.50
2022-11-07T14:10:37.815Z,13.50
2022-11-07T14:13:11.697Z,13.50
2022-11-07T14:15:46.940Z,13.50
2022-11-07T14:18:17.233Z,13.50
2022-11-07T14:20:49.538Z,13.60
2022-11-07T14:23:19.407Z,13.60
2022-11-07T14:25:58.341Z,13.60
2022-11-07T14:28:29.216Z,13.60
2022-11-07T14:30:55.756Z,13.60
2022-11-07T14:33:23.796Z,13.60
2022-11-07T14:35:51.852Z,13.60
2022-11-07T14:38:25.537Z,13.60
2022-11-07T14:40:54.963Z,13.60
2022-11-07T14:43:24.371Z,13.60
2022-11-07T14:46:13.494Z,13.50
2022-11-07T14:48:43.155Z,13.50
2022-11-07T14:51:13.151Z,13.50
2022-11-07T14:53:51.639Z,13.40
2022-11-07T14:56:22.775Z,13.40
2022-11-07T14:58:49.545Z,13.50
2022-11-07T15:01:27.613Z,13.50
2022-11-07T15:04:00.810Z,13.50
2022-11-07T15:06:41.008Z,13.60
2022-11-07T15:09:11.066Z,13.60
2022-11-07T15:11:40.246Z,13.70
2022-11-07T15:14:25.688Z,13.70
2022-11-07T15:16:53.901Z,13.70
2022-11-07T15:19:23.165Z,13.70
2022-11-07T15:22:01.391Z,13.60
2022-11-07T15:24:46.231Z,13.70
2022-11-07T15:27:39.674Z,13.70
2022-11-07T15:30:08.715Z,13.70
2022-11-07T15:32:41.107Z,13.70
2022-11-07T15:38:07.177Z,13.70
2022-11-07T15:40:33.762Z,13.70
2022-11-07T15:43:00.339Z,13.60
2022-11-07T15:45:27.185Z,13.60
2022-11-07T15:47:54.806Z,13.60
2022-11-07T15:50:24.657Z,13.60
2022-11-07T15:52:52.891Z,13.70
2022-11-07T15:55:22.237Z,13.60
2022-11-07T15:57:52.184Z,13.60
2022-11-07T16:00:27.765Z,13.60
2022-11-07T16:02:54.417Z,13.60
2022-11-07T16:05:21.017Z,13.60
2022-11-07T16:07:47.676Z,13.60
2022-11-07T16:10:25.949Z,13.60
2022-11-07T16:12:53.889Z,13.60
2022-11-07T16:15:23.444Z,13.50
2022-11-07T16:17:50.485Z,13.50
2022-11-07T16:20:20.326Z,13.40
2022-11-07T16:22:48.053Z,13.40
2022-11-07T16:25:22.067Z,13.40
2022-11-07T16:27:55.607Z,13.50
2022-11-07T16:30:22.932Z,13.50
2022-11-07T16:32:49.503Z,13.50
2022-11-07T16:35:16.250Z,13.50
2022-11-07T16:37:42.813Z,13.60
2022-11-07T16:40:14.011Z,13.60
2022-11-07T16:42:40.593Z,13.60
2022-11-07T16:45:07.835Z,13.50
2022-11-07T16:47:39.281Z,13.60
2022-11-07T16:50:06.836Z,13.60
2022-11-07T16:52:34.988Z,13.60
2022-11-07T16:55:02.156Z,13.60
2022-11-07T16:57:29.288Z,14.00
2022-11-07T16:59:56.127Z,13.60
2022-11-07T17:02:26.571Z,13.60
2022-11-07T17:04:54.289Z,13.60
2022-11-07T17:07:23.550Z,13.60
2022-11-07T17:09:50.495Z,13.60
2022-11-07T17:12:20.533Z,13.60
2022-11-07T17:14:49.652Z,13.70
2022-11-07T17:17:18.490Z,13.60
2022-11-07T17:19:45.419Z,13.60
2022-11-07T17:22:12.729Z,13.60
2022-11-07T17:24:39.571Z,13.70
2022-11-07T17:27:19.744Z,13.70
2022-11-07T17:29:46.296Z,13.70
2022-11-07T17:32:12.827Z,13.80
2022-11-07T17:34:39.423Z,13.70
2022-11-07T17:37:06.150Z,13.70
2022-11-07T17:39:32.790Z,13.70
2022-11-07T17:41:59.476Z,13.70
2022-11-07T17:44:26.175Z,13.70
2022-11-07T17:46:52.804Z,13.70
2022-11-07T17:49:21.789Z,13.70
2022-11-07T17:51:48.382Z,14.00
2022-11-07T17:54:15.937Z,13.60
2022-11-07T17:56:43.084Z,13.70
2022-11-07T17:59:14.953Z,13.60
2022-11-07T18:01:42.563Z,13.60
2022-11-07T18:04:11.735Z,13.60
2022-11-07T18:06:41.161Z,13.50
2022-11-07T18:09:11.687Z,13.50
2022-11-07T18:11:38.457Z,13.50
2022-11-07T18:14:05.011Z,13.50
2022-11-07T18:16:34.432Z,13.50
2022-11-07T18:19:01.811Z,13.70
2022-11-07T18:21:29.058Z,13.50
2022-11-07T18:23:56.605Z,13.70
2022-11-07T18:26:27.103Z,13.60
2022-11-07T18:28:53.830Z,13.50
2022-11-07T18:31:23.564Z,13.50
2022-11-07T18:33:53.556Z,13.50
2022-11-07T18:36:23.316Z,13.50
2022-11-07T18:38:50.732Z,13.50
2022-11-07T18:41:20.095Z,13.60
2022-11-07T18:43:47.206Z,13.50
2022-11-07T18:46:15.482Z,13.50
2022-11-07T18:48:42.433Z,13.40
2022-11-07T18:51:18.893Z,13.50
2022-11-07T18:53:45.707Z,13.50
2022-11-07T18:56:13.624Z,13.50
2022-11-07T18:58:42.803Z,13.50
2022-11-07T19:01:13.247Z,13.50
2022-11-07T19:03:40.919Z,13.60
2022-11-07T19:06:09.991Z,13.50
2022-11-07T19:08:38.610Z,13.40
2022-11-07T19:11:07.937Z,13.50
2022-11-07T19:13:37.466Z,13.50
2022-11-07T19:16:06.055Z,13.50
2022-11-07T19:18:32.898Z,13.50
2022-11-07T19:21:00.044Z,13.60
2022-11-07T19:23:27.203Z,13.60
2022-11-07T19:25:54.338Z,13.60
2022-11-07T19:28:22.161Z,13.60
2022-11-07T19:30:49.092Z,13.60
2022-11-07T19:33:16.403Z,13.60
2022-11-07T19:35:43.305Z,13.60
2022-11-07T19:38:12.401Z,13.60
2022-11-07T19:40:39.420Z,13.60
2022-11-07T19:43:06.067Z,13.70
2022-11-07T19:45:32.635Z,13.60
2022-11-07T19:47:59.392Z,13.70
2022-11-07T19:50:25.935Z,13.60
2022-11-07T19:52:53.559Z,13.50
2022-11-07T19:55:20.159Z,13.50
2022-11-07T19:57:48.767Z,13.50
2022-11-07T20:00:16.200Z,13.60
2022-11-07T20:02:46.612Z,13.60
2022-11-07T20:05:13.260Z,13.60
2022-11-07T20:07:40.171Z,13.60
2022-11-07T20:10:08.576Z,13.60
2022-11-07T20:12:35.119Z,13.60
2022-11-07T20:15:01.719Z,13.50
2022-11-07T20:17:28.271Z,13.50
2022-11-07T20:19:54.782Z,13.50
2022-11-07T20:22:21.372Z,13.40
2022-11-07T20:24:54.068Z,13.40
2022-11-07T20:27:20.598Z,13.40
2022-11-07T20:29:47.250Z,13.30
2022-11-07T20:32:13.861Z,13.30
2022-11-07T20:34:59.799Z,13.30
2022-11-07T20:37:26.530Z,13.40
2022-11-07T20:39:53.066Z,13.30
2022-11-07T20:42:19.624Z,13.30
2022-11-07T20:44:46.200Z,13.30
2022-11-07T20:49:54.785Z,13.30
2022-11-07T20:52:21.382Z,13.30
2022-11-07T20:54:48.790Z,13.30
2022-11-07T20:57:15.435Z,13.30
2022-11-07T20:59:42.254Z,13.30
2022-11-07T21:02:15.426Z,13.30
2022-11-07T21:05:03.174Z,13.30
2022-11-07T21:07:29.087Z,13.20
2022-11-07T21:09:55.714Z,13.20
2022-11-07T21:12:22.263Z,13.20
2022-11-07T21:14:48.791Z,13.30
2022-11-07T21:17:16.005Z,13.30
2022-11-07T21:19:42.542Z,13.30
2022-11-07T21:22:09.256Z,13.30
2022-11-07T21:24:35.793Z,13.40
2022-11-07T21:27:02.506Z,13.40
2022-11-07T21:29:29.955Z,13.40
2022-11-07T21:31:57.192Z,13.30
2022-11-07T21:34:23.849Z,13.30
2022-11-07T21:36:50.389Z,13.30
2022-11-07T21:39:17.780Z,13.30
2022-11-07T21:41:44.404Z,13.30
2022-11-07T21:44:12.325Z,13.30
2022-11-07T21:46:39.112Z,13.30
2022-11-07T21:49:06.209Z,13.20
2022-11-07T21:51:34.819Z,13.20
2022-11-07T21:54:03.500Z,13.20
2022-11-07T21:56:33.284Z,13.10
2022-11-07T21:59:03.085Z,13.10
2022-11-07T22:01:34.607Z,13.10
2022-11-07T22:04:08.488Z,13.10
2022-11-07T22:06:38.132Z,13.10
2022-11-07T22:09:05.967Z,13.10
2022-11-07T22:11:32.811Z,13.10
2022-11-07T22:13:59.514Z,13.10
2022-11-07T22:16:26.283Z,13.10
2022-11-07T22:18:52.916Z,13.20
2022-11-07T22:21:21.689Z,13.20
2022-11-07T22:23:48.574Z,13.20
2022-11-07T22:26:23.547Z,13.20
2022-11-07T22:28:50.824Z,13.20
2022-11-07T22:31:25.767Z,13.20
2022-11-07T22:33:53.540Z,13.20
2022-11-07T22:36:21.812Z,13.30
2022-11-07T22:38:48.677Z,13.30
2022-11-07T22:41:18.045Z,13.30
2022-11-07T22:43:44.638Z,13.30
2022-11-07T22:46:13.954Z,13.40
2022-11-07T22:48:41.145Z,13.20
2022-11-07T22:51:10.363Z,13.30
2022-11-07T22:53:38.889Z,13.30
2022-11-07T22:56:17.128Z,13.30
2022-11-07T22:58:44.456Z,13.30
2022-11-07T23:01:22.359Z,13.30
2022-11-07T23:03:49.830Z,13.30
2022-11-07T23:06:17.327Z,13.20
2022-11-07T23:08:44.134Z,13.20
2022-11-07T23:14:06.062Z,13.30
2022-11-07T23:16:35.378Z,13.30
2022-11-07T23:19:04.847Z,13.30
2022-11-07T23:21:31.871Z,13.30
2022-11-07T23:23:59.740Z,13.40
2022-11-07T23:26:33.892Z,13.40
2022-11-07T23:29:11.843Z,13.40
2022-11-07T23:31:39.917Z,13.40
2022-11-07T23:34:07.003Z,13.40
2022-11-07T23:36:33.684Z,13.50
2022-11-07T23:39:05.769Z,13.50
2022-11-07T23:41:32.369Z,13.50
2022-11-07T23:43:59.115Z,13.50
2022-11-07T23:46:44.413Z,13.50
2022-11-07T23:49:37.378Z,13.60
2022-11-07T23:52:04.512Z,13.50
2022-11-07T23:54:50.256Z,13.60
2022-11-07T23:57:16.971Z,13.60
